Time;durP1;ratioP1;P1;durP2;ratioP2;P2;SDS_P1;SDS_P2;PMS_P1;PMS_P2;Temp;Humidity;BMP_temperature;BMP_pressure;BME280_temperature;BME280_humidity;BME280_pressure;Samples;Min_cycle;Max_cycle;Signal;HPM_P1;HPM_P2
2022/08/26 00:01:32;;;;;;;2.88;1.20;;;21.70;99.90;;;;;;5098357;28;20601;-76
2022/08/26 00:04:00;;;;;;;5.00;1.50;;;21.70;99.90;;;;;;5069465;28;20191;-77
2022/08/26 00:06:26;;;;;;;3.42;1.27;;;21.80;99.90;;;;;;5070845;28;20179;-77
2022/08/26 00:08:53;;;;;;;3.65;1.40;;;21.90;99.90;;;;;;5066626;28;20214;-76
2022/08/26 00:11:20;;;;;;;2.75;1.35;;;21.90;99.90;;;;;;5090915;28;20228;-77
2022/08/26 00:13:46;;;;;;;3.03;1.33;;;22.00;99.90;;;;;;5072631;28;20174;-77
2022/08/26 00:16:13;;;;;;;3.73;1.53;;;22.00;99.90;;;;;;5106322;28;20585;-77
2022/08/26 00:18:40;;;;;;;3.38;1.40;;;22.00;99.90;;;;;;5099419;28;20192;-76
2022/08/26 00:21:08;;;;;;;4.57;1.27;;;22.10;99.90;;;;;;5109321;28;20178;-77
2022/08/26 00:23:35;;;;;;;2.73;1.40;;;22.10;99.90;;;;;;5093446;28;20187;-77
2022/08/26 00:26:04;;;;;;;3.55;1.40;;;22.10;99.90;;;;;;5070383;28;20181;-77
2022/08/26 00:28:30;;;;;;;3.90;1.43;;;22.10;99.90;;;;;;5052064;28;20175;-77
2022/08/26 00:30:57;;;;;;;3.10;1.50;;;22.10;99.90;;;;;;5052015;28;20260;-77
2022/08/26 00:33:24;;;;;;;2.85;1.45;;;22.10;99.90;;;;;;5051975;28;20775;-77
2022/08/26 00:35:50;;;;;;;2.30;1.20;;;22.10;99.90;;;;;;5082606;28;20177;-77
2022/08/26 00:38:17;;;;;;;4.32;1.70;;;22.20;99.90;;;;;;5090261;28;20178;-77
2022/08/26 00:40:51;;;;;;;4.68;1.40;;;22.20;99.90;;;;;;5102253;28;20186;-77
2022/08/26 00:43:19;;;;;;;2.30;1.40;;;22.30;99.90;;;;;;5080268;28;20210;-77
2022/08/26 00:46:28;;;;;;;2.90;1.53;;;22.30;99.90;;;;;;5090087;28;20178;-77
2022/08/26 00:49:12;;;;;;;2.38;1.40;;;22.30;99.90;;;;;;5088617;28;20237;-77
2022/08/26 00:51:48;;;;;;;2.73;1.40;;;22.40;99.90;;;;;;5103438;28;20185;-77
2022/08/26 00:54:17;;;;;;;3.95;1.48;;;22.40;99.90;;;;;;5092127;28;20194;-77
2022/08/26 00:57:08;;;;;;;2.92;1.77;;;22.40;99.90;;;;;;5071405;28;20535;-77
2022/08/26 00:59:35;;;;;;;4.53;1.55;;;22.40;99.90;;;;;;5093830;28;20182;-77
2022/08/26 01:02:03;;;;;;;6.55;1.58;;;22.40;99.90;;;;;;5088651;28;20189;-77
2022/08/26 01:04:34;;;;;;;3.87;1.67;;;22.40;99.90;;;;;;5089531;28;20265;-77
2022/08/26 01:07:02;;;;;;;2.77;1.60;;;22.40;99.90;;;;;;5089687;28;20578;-77
2022/08/26 01:09:30;;;;;;;2.28;1.40;;;22.30;99.90;;;;;;5095779;28;20278;-77
2022/08/26 01:12:01;;;;;;;5.40;1.60;;;22.30;99.90;;;;;;5110199;28;20182;-77
2022/08/26 01:14:34;;;;;;;4.75;1.60;;;22.30;99.90;;;;;;5105898;28;20182;-77
2022/08/26 01:17:03;;;;;;;2.60;1.37;;;22.20;99.90;;;;;;5089637;28;20197;-77
2022/08/26 01:19:44;;;;;;;3.80;1.45;;;22.10;99.90;;;;;;5087994;28;20193;-77
2022/08/26 01:22:22;;;;;;;2.80;1.73;;;22.10;99.90;;;;;;5089624;28;20238;-77
2022/08/26 01:24:49;;;;;;;2.35;1.40;;;22.10;99.90;;;;;;5089424;28;20196;-76
2022/08/26 01:27:19;;;;;;;4.10;1.63;;;22.10;99.90;;;;;;5121277;27;20189;-76
2022/08/26 01:29:49;;;;;;;3.17;1.48;;;22.00;99.90;;;;;;5104569;28;20198;-76
2022/08/26 01:32:21;;;;;;;2.97;1.63;;;22.00;99.90;;;;;;5070710;28;20174;-77
2022/08/26 01:34:48;;;;;;;3.50;1.47;;;22.00;99.90;;;;;;5082116;28;20614;-77
2022/08/26 01:37:33;;;;;;;3.10;1.40;;;22.10;99.90;;;;;;5088529;28;20178;-76
2022/08/26 01:40:00;;;;;;;3.37;1.43;;;22.00;99.90;;;;;;5068518;28;20193;-77
2022/08/26 01:42:27;;;;;;;4.10;1.60;;;22.00;99.90;;;;;;5084499;28;20186;-76
2022/08/26 01:45:04;;;;;;;2.40;1.30;;;22.00;99.90;;;;;;5107051;28;20667;-76
2022/08/26 01:47:35;;;;;;;2.80;1.45;;;22.00;99.90;;;;;;5107920;28;20177;-76
2022/08/26 01:50:11;;;;;;;1.45;1.17;;;21.90;99.90;;;;;;5108091;28;20204;-77
2022/08/26 01:52:43;;;;;;;1.40;1.20;;;21.90;99.90;;;;;;5106174;28;20181;-77
2022/08/26 01:55:14;;;;;;;5.00;1.60;;;21.80;99.90;;;;;;5104721;28;20528;-76
2022/08/26 01:57:45;;;;;;;2.90;1.50;;;21.80;99.90;;;;;;5087890;28;20183;-76
2022/08/26 02:00:13;;;;;;;4.30;1.50;;;21.90;99.90;;;;;;5089367;28;20189;-77
2022/08/26 02:03:15;;;;;;;3.30;1.50;;;21.90;99.90;;;;;;5087641;28;20257;-77
2022/08/26 02:05:39;;;;;;;2.25;1.38;;;21.90;99.90;;;;;;5087198;28;20272;-76
2022/08/26 02:08:06;;;;;;;5.53;1.40;;;21.90;99.90;;;;;;5088911;28;20186;-77
2022/08/26 02:10:33;;;;;;;2.20;1.50;;;21.90;99.90;;;;;;5104657;28;20213;-76
2022/08/26 02:12:59;;;;;;;3.13;1.55;;;21.90;99.90;;;;;;5089085;28;20235;-76
2022/08/26 02:15:26;;;;;;;2.75;1.50;;;21.80;99.90;;;;;;5070728;28;20185;-77
2022/08/26 02:17:53;;;;;;;3.40;1.60;;;21.80;99.90;;;;;;5098380;28;20228;-77
2022/08/26 02:20:20;;;;;;;3.77;1.53;;;21.80;99.90;;;;;;5108074;28;20592;-77
2022/08/26 02:22:47;;;;;;;3.03;1.30;;;21.80;99.90;;;;;;5095530;28;20843;-76
2022/08/26 02:25:35;;;;;;;3.50;1.38;;;21.80;99.90;;;;;;5068688;28;20179;-77
2022/08/26 02:28:02;;;;;;;5.15;1.73;;;21.70;99.90;;;;;;5067214;28;20274;-76
2022/08/26 02:30:31;;;;;;;3.63;1.77;;;21.70;99.90;;;;;;5050605;28;20272;-77
2022/08/26 02:33:04;;;;;;;3.33;1.57;;;21.60;99.90;;;;;;5067530;28;20175;-77
2022/08/26 02:35:34;;;;;;;2.35;1.50;;;21.60;99.90;;;;;;5068195;28;20213;-76
2022/08/26 02:38:02;;;;;;;4.15;1.80;;;21.50;99.90;;;;;;5103037;28;20190;-76
2022/08/26 02:40:35;;;;;;;4.32;1.60;;;21.60;99.90;;;;;;5120945;28;20519;-76
2022/08/26 02:43:03;;;;;;;3.73;1.63;;;21.60;99.90;;;;;;5087637;28;20689;-77
2022/08/26 02:45:30;;;;;;;2.17;1.30;;;21.70;99.90;;;;;;5088965;28;20186;-76
2022/08/26 02:47:57;;;;;;;2.22;1.42;;;21.70;99.90;;;;;;5073781;28;20192;-76
2022/08/26 02:50:25;;;;;;;3.13;1.50;;;21.70;99.90;;;;;;5107799;28;20803;-77
2022/08/26 02:52:52;;;;;;;3.73;1.60;;;21.60;99.90;;;;;;5124463;27;20190;-76
2022/08/26 02:55:18;;;;;;;3.80;1.70;;;21.60;99.90;;;;;;5092154;28;20188;-77
2022/08/26 02:57:45;;;;;;;2.38;1.30;;;21.70;99.90;;;;;;5107717;28;20189;-76
2022/08/26 03:00:14;;;;;;;3.35;1.67;;;21.70;99.90;;;;;;5092291;28;20174;-77
2022/08/26 03:02:41;;;;;;;2.67;1.77;;;21.70;99.90;;;;;;5073764;28;20178;-77
2022/08/26 03:05:08;;;;;;;3.63;1.40;;;21.80;99.90;;;;;;5090068;28;20236;-77
2022/08/26 03:07:35;;;;;;;2.70;1.40;;;21.80;99.90;;;;;;5107300;28;20238;-76
2022/08/26 03:10:01;;;;;;;3.15;1.60;;;21.80;99.90;;;;;;5070274;28;20261;-77
2022/08/26 03:12:27;;;;;;;3.53;1.70;;;21.80;99.90;;;;;;5071807;28;20167;-77
2022/08/26 03:14:55;;;;;;;2.33;1.40;;;21.80;99.90;;;;;;5103766;28;20282;-76
2022/08/26 03:17:21;;;;;;;2.80;1.50;;;21.80;99.90;;;;;;5070710;28;20194;-76
2022/08/26 03:19:48;;;;;;;2.47;1.40;;;21.80;99.90;;;;;;5106160;28;20192;-77
2022/08/26 03:22:14;;;;;;;2.43;1.50;;;21.80;99.90;;;;;;5084138;28;20835;-77
2022/08/26 03:24:41;;;;;;;3.55;1.58;;;21.70;99.90;;;;;;5090190;28;20212;-76
2022/08/26 03:27:08;;;;;;;4.25;1.77;;;21.70;99.90;;;;;;5090365;28;20182;-76
2022/08/26 03:32:20;;;;;;;2.90;1.42;;;21.80;99.90;;;;;;5080659;28;20197;-76
2022/08/26 03:34:46;;;;;;;2.93;1.70;;;21.80;99.90;;;;;;5098758;28;20213;-77
2022/08/26 03:37:13;;;;;;;3.20;1.58;;;21.80;99.90;;;;;;5084269;28;20190;-77
2022/08/26 03:39:40;;;;;;;2.63;1.40;;;21.80;99.90;;;;;;5073017;28;20217;-77
2022/08/26 03:42:06;;;;;;;3.25;1.60;;;21.80;99.90;;;;;;5090042;28;20184;-76
2022/08/26 03:44:33;;;;;;;3.23;1.40;;;21.80;99.90;;;;;;5081638;28;20191;-76
2022/08/26 03:46:59;;;;;;;2.37;1.60;;;21.80;99.90;;;;;;5087970;28;20707;-77
2022/08/26 03:49:26;;;;;;;2.67;1.33;;;21.80;99.90;;;;;;5087262;28;21072;-76
2022/08/26 03:51:53;;;;;;;4.47;1.60;;;21.80;99.90;;;;;;5089634;28;20564;-76
2022/08/26 03:54:19;;;;;;;5.40;1.87;;;21.80;99.90;;;;;;5123842;27;20808;-76
2022/08/26 03:56:46;;;;;;;5.90;1.50;;;21.80;99.90;;;;;;5085120;28;20183;-77
2022/08/26 03:59:12;;;;;;;2.93;1.60;;;21.80;99.90;;;;;;5123343;27;20178;-76
2022/08/26 04:01:39;;;;;;;2.23;1.50;;;21.80;99.90;;;;;;5084607;28;20281;-77
2022/08/26 04:04:05;;;;;;;4.13;1.63;;;21.80;99.90;;;;;;5088369;28;20229;-77
2022/08/26 04:06:43;;;;;;;2.60;1.80;;;21.80;99.90;;;;;;5089620;28;20273;-77
2022/08/26 04:09:14;;;;;;;2.45;1.50;;;21.80;99.90;;;;;;5088131;28;20902;-77
2022/08/26 04:11:44;;;;;;;5.07;1.70;;;21.70;99.90;;;;;;5089390;28;20196;-77
2022/08/26 04:14:19;;;;;;;5.15;1.50;;;21.60;99.90;;;;;;5121841;27;20816;-77
2022/08/26 04:16:46;;;;;;;3.00;1.40;;;21.70;99.90;;;;;;5104855;27;20197;-76
2022/08/26 04:19:15;;;;;;;2.30;1.63;;;21.70;99.90;;;;;;5104043;27;20635;-76
2022/08/26 04:21:43;;;;;;;4.32;1.50;;;21.70;99.90;;;;;;5089120;28;20227;-77
2022/08/26 04:24:14;;;;;;;2.87;1.60;;;21.70;99.90;;;;;;5119804;27;20193;-76
2022/08/26 04:26:42;;;;;;;3.63;1.50;;;21.70;99.90;;;;;;5105310;28;20678;-76
2022/08/26 04:29:16;;;;;;;4.25;1.63;;;21.70;99.90;;;;;;5071915;28;20297;-77
2022/08/26 04:31:43;;;;;;;3.50;1.47;;;21.70;99.90;;;;;;5120799;27;20203;-76
2022/08/26 04:34:10;;;;;;;5.50;1.50;;;21.70;99.90;;;;;;5090097;28;20186;-76
2022/08/26 04:36:37;;;;;;;2.20;1.30;;;21.70;99.90;;;;;;5090409;28;20190;-76
2022/08/26 04:39:04;;;;;;;3.08;1.70;;;21.70;99.90;;;;;;5088896;28;20204;-77
2022/08/26 04:41:31;;;;;;;5.47;1.70;;;21.70;99.90;;;;;;5072157;28;20217;-77
2022/08/26 04:43:57;;;;;;;2.07;1.43;;;21.70;99.90;;;;;;5103476;28;20232;-77
2022/08/26 04:46:25;;;;;;;3.87;1.53;;;21.70;99.90;;;;;;5069613;28;20273;-77
2022/08/26 04:48:53;;;;;;;3.58;1.35;;;21.70;99.90;;;;;;5084592;28;20214;-76
2022/08/26 04:51:26;;;;;;;7.95;2.35;;;21.80;99.90;;;;;;5079537;28;20213;-76
2022/08/26 04:53:57;;;;;;;3.20;1.52;;;21.80;99.90;;;;;;5122574;27;20184;-77
2022/08/26 04:56:32;;;;;;;3.92;1.55;;;21.90;99.90;;;;;;5090215;28;20204;-76
2022/08/26 04:59:01;;;;;;;3.13;1.60;;;22.00;99.90;;;;;;5075955;28;20186;-77
2022/08/26 05:01:30;;;;;;;4.20;1.33;;;22.10;99.90;;;;;;5105279;28;20584;-77
2022/08/26 05:03:57;;;;;;;2.83;1.50;;;22.20;99.90;;;;;;5080658;28;20183;-77
2022/08/26 05:06:24;;;;;;;4.03;1.50;;;22.20;99.90;;;;;;5079967;28;20181;-76
2022/08/26 05:08:51;;;;;;;2.80;1.48;;;22.20;99.90;;;;;;5085452;28;20244;-77
2022/08/26 05:11:17;;;;;;;3.65;1.60;;;22.20;99.90;;;;;;5096147;28;20192;-77
2022/08/26 05:13:43;;;;;;;3.80;1.70;;;22.30;99.90;;;;;;5083890;28;20197;-77
2022/08/26 05:16:13;;;;;;;3.30;1.50;;;22.30;99.90;;;;;;5082749;28;20670;-76
2022/08/26 05:18:43;;;;;;;2.30;1.60;;;22.30;99.90;;;;;;5087392;28;20673;-76
2022/08/26 05:21:22;;;;;;;3.63;1.73;;;22.40;99.90;;;;;;5088022;28;20231;-77
2022/08/26 05:23:50;;;;;;;3.10;1.45;;;22.50;99.90;;;;;;5063865;28;20186;-76
2022/08/26 05:26:18;;;;;;;2.10;1.27;;;22.50;99.90;;;;;;5101628;28;20240;-76
2022/08/26 05:28:44;;;;;;;2.47;1.75;;;22.60;99.90;;;;;;5087842;28;20178;-77
2022/08/26 05:31:22;;;;;;;4.20;1.58;;;22.70;99.90;;;;;;5069411;28;20186;-77
2022/08/26 05:33:49;;;;;;;2.10;1.35;;;22.80;99.90;;;;;;5117956;27;20231;-77
2022/08/26 05:36:19;;;;;;;2.63;1.48;;;22.90;99.90;;;;;;5089224;28;20186;-77
2022/08/26 05:38:46;;;;;;;2.40;1.50;;;22.90;99.90;;;;;;5103115;27;20201;-77
2022/08/26 05:41:26;;;;;;;3.35;1.50;;;23.00;99.90;;;;;;5088044;28;20182;-77
2022/08/26 05:43:54;;;;;;;2.92;1.30;;;23.00;99.90;;;;;;5108469;27;20282;-77
2022/08/26 05:46:25;;;;;;;3.15;1.40;;;23.00;99.90;;;;;;5085568;28;20177;-77
2022/08/26 05:48:56;;;;;;;2.25;1.20;;;23.00;99.90;;;;;;5061911;28;20571;-77
2022/08/26 05:51:24;;;;;;;6.35;1.60;;;23.10;99.90;;;;;;5086161;28;20739;-77
2022/08/26 05:53:51;;;;;;;2.97;1.50;;;23.20;99.90;;;;;;5087784;28;20175;-77
2022/08/26 05:56:23;;;;;;;4.65;1.50;;;23.40;99.90;;;;;;5096770;28;20273;-77
2022/08/26 05:58:50;;;;;;;2.22;1.40;;;23.40;99.90;;;;;;5058636;28;20179;-76
2022/08/26 06:01:21;;;;;;;2.17;1.15;;;23.40;99.90;;;;;;5087802;28;20185;-77
2022/08/26 06:03:56;;;;;;;3.05;1.52;;;23.40;99.90;;;;;;5121994;28;20265;-77
2022/08/26 06:06:34;;;;;;;3.33;1.50;;;23.50;99.90;;;;;;5070881;28;20946;-77
2022/08/26 06:09:04;;;;;;;3.40;1.20;;;23.40;99.90;;;;;;5072524;28;20571;-77
2022/08/26 06:11:33;;;;;;;2.17;1.30;;;23.50;99.90;;;;;;5104879;28;20179;-77
2022/08/26 06:14:04;;;;;;;2.03;1.42;;;23.50;99.90;;;;;;5087526;28;20174;-76
2022/08/26 06:16:37;;;;;;;3.90;1.40;;;23.50;99.90;;;;;;5089452;28;20186;-77
2022/08/26 06:19:06;;;;;;;3.00;1.30;;;23.60;99.90;;;;;;5105871;28;20182;-77
2022/08/26 06:21:37;;;;;;;2.28;1.20;;;23.60;99.90;;;;;;5108511;28;20189;-77
2022/08/26 06:26:59;;;;;;;1.92;1.20;;;24.00;99.90;;;;;;5108379;28;20297;-77
2022/08/26 06:29:28;;;;;;;2.28;1.38;;;24.10;99.90;;;;;;5074110;28;20206;-76
2022/08/26 06:32:06;;;;;;;3.92;1.27;;;24.20;99.90;;;;;;5108810;28;20194;-77
2022/08/26 06:34:37;;;;;;;3.40;1.33;;;24.20;99.90;;;;;;5108337;28;20174;-77
2022/08/26 06:37:08;;;;;;;2.70;1.35;;;24.30;99.90;;;;;;5091061;28;20185;-77
2022/08/26 06:39:34;;;;;;;2.92;1.40;;;24.30;99.90;;;;;;5092269;28;20201;-77
2022/08/26 06:42:06;;;;;;;2.28;1.23;;;24.30;99.90;;;;;;5091115;28;20729;-77
2022/08/26 06:44:33;;;;;;;3.30;1.45;;;24.30;99.90;;;;;;5068162;28;20697;-77
2022/08/26 06:47:00;;;;;;;1.58;1.20;;;24.50;99.90;;;;;;5094247;28;20183;-77
2022/08/26 06:49:26;;;;;;;3.30;1.27;;;24.50;99.90;;;;;;5061094;28;20210;-76
2022/08/26 06:51:55;;;;;;;2.83;1.40;;;24.60;99.90;;;;;;5079908;28;20186;-76
2022/08/26 06:54:25;;;;;;;6.85;1.38;;;24.60;99.90;;;;;;5099353;28;20239;-76
2022/08/26 06:56:51;;;;;;;3.47;1.45;;;24.70;99.90;;;;;;5100611;28;20183;-76
2022/08/26 06:59:18;;;;;;;3.10;1.30;;;24.80;99.90;;;;;;5087004;28;20336;-76
2022/08/26 07:01:47;;;;;;;3.28;1.05;;;24.80;99.90;;;;;;5099370;28;20212;-76
2022/08/26 07:04:16;;;;;;;1.90;1.15;;;24.90;99.90;;;;;;5076584;28;20188;-76
2022/08/26 07:06:49;;;;;;;2.70;1.20;;;25.00;99.90;;;;;;5092971;28;20175;-76
2022/08/26 07:09:16;;;;;;;1.95;1.30;;;25.00;99.90;;;;;;5089591;28;20209;-76
2022/08/26 07:11:43;;;;;;;4.03;1.55;;;25.10;99.90;;;;;;5073768;28;20181;-76
2022/08/26 07:14:10;;;;;;;2.88;1.23;;;25.10;99.90;;;;;;5073058;28;20193;-75
2022/08/26 07:16:40;;;;;;;1.65;1.23;;;25.20;99.90;;;;;;5090671;28;20287;-76
2022/08/26 07:19:07;;;;;;;1.80;1.00;;;25.20;99.90;;;;;;5072424;28;20227;-76
2022/08/26 07:21:35;;;;;;;1.42;1.00;;;25.30;99.90;;;;;;5069969;28;20641;-78
2022/08/26 07:24:03;;;;;;;2.15;1.45;;;25.50;99.90;;;;;;5093878;28;20199;-77
2022/08/26 07:26:30;;;;;;;1.20;1.08;;;25.70;99.90;;;;;;5122196;27;20243;-77
2022/08/26 07:28:59;;;;;;;2.20;1.13;;;25.70;99.90;;;;;;5095542;28;20190;-77
2022/08/26 07:31:31;;;;;;;2.17;1.83;;;25.90;99.90;;;;;;5112297;27;20190;-77
2022/08/26 07:33:58;;;;;;;1.33;1.05;;;26.00;99.90;;;;;;5086627;28;20214;-77
2022/08/26 07:36:26;;;;;;;3.00;1.38;;;26.00;99.90;;;;;;5068367;28;20192;-77
2022/08/26 07:38:54;;;;;;;2.80;1.23;;;26.10;99.90;;;;;;5103522;28;20242;-77
2022/08/26 07:41:24;;;;;;;5.28;1.27;;;26.20;99.90;;;;;;5084762;28;20185;-77
2022/08/26 07:43:54;;;;;;;2.80;1.20;;;26.20;99.90;;;;;;5081017;28;21990;-77
2022/08/26 07:46:20;;;;;;;2.10;1.27;;;26.30;99.90;;;;;;5120576;27;20185;-77
2022/08/26 07:48:49;;;;;;;2.45;1.27;;;26.30;99.90;;;;;;5077561;28;20593;-77
2022/08/26 07:51:18;;;;;;;3.47;1.15;;;26.40;99.90;;;;;;5086444;28;20225;-77
2022/08/26 07:53:46;;;;;;;3.92;1.10;;;26.40;99.90;;;;;;5084515;28;20182;-74
2022/08/26 07:56:13;;;;;;;1.73;1.23;;;26.30;99.90;;;;;;5067603;28;20186;-74
2022/08/26 07:58:42;;;;;;;3.45;1.25;;;26.30;99.90;;;;;;5097747;28;20232;-74
2022/08/26 08:01:08;;;;;;;2.10;1.13;;;26.40;99.90;;;;;;5112789;27;20607;-74
2022/08/26 08:03:35;;;;;;;2.30;1.20;;;26.50;99.90;;;;;;5102630;28;20190;-74
2022/08/26 08:06:01;;;;;;;1.83;1.13;;;26.50;99.90;;;;;;5064333;28;20284;-74
2022/08/26 08:08:27;;;;;;;3.38;1.40;;;26.50;99.90;;;;;;5078224;28;20190;-74
2022/08/26 08:10:55;;;;;;;6.15;1.40;;;26.50;99.90;;;;;;5084655;28;20218;-73
2022/08/26 08:13:22;;;;;;;2.15;1.27;;;26.40;99.90;;;;;;5078269;28;20195;-74
2022/08/26 08:15:49;;;;;;;3.67;1.25;;;26.30;99.90;;;;;;5078992;28;20182;-74
2022/08/26 08:18:19;;;;;;;3.67;1.10;;;26.50;99.90;;;;;;5119925;27;20265;-74
2022/08/26 08:20:45;;;;;;;4.32;1.20;;;26.60;99.90;;;;;;5084928;28;20537;-74
2022/08/26 08:23:12;;;;;;;2.83;1.40;;;26.80;99.90;;;;;;5098786;28;20190;-74
2022/08/26 08:25:39;;;;;;;1.40;1.08;;;26.80;99.90;;;;;;5109779;27;20209;-73
2022/08/26 08:28:06;;;;;;;1.75;1.35;;;26.70;99.90;;;;;;5067584;28;20634;-73
2022/08/26 08:30:39;;;;;;;2.13;1.08;;;26.60;99.90;;;;;;5105950;28;21260;-71
2022/08/26 08:33:06;;;;;;;2.75;1.40;;;26.40;99.90;;;;;;5086511;28;20186;-74
2022/08/26 08:35:33;;;;;;;3.85;1.33;;;26.50;99.90;;;;;;5058991;28;20968;-74
2022/08/26 08:38:01;;;;;;;1.77;1.27;;;26.50;99.90;;;;;;5100141;28;20183;-75
2022/08/26 08:40:28;;;;;;;2.38;1.17;;;26.50;99.90;;;;;;5118351;27;20695;-74
2022/08/26 08:43:12;;;;;;;3.15;1.25;;;26.50;99.90;;;;;;5092082;28;20205;-74
2022/08/26 08:45:43;;;;;;;3.25;1.10;;;26.50;99.90;;;;;;5086763;28;20182;-74
2022/08/26 08:48:32;;;;;;;2.05;0.95;;;26.40;99.90;;;;;;5083675;28;20747;-74
2022/08/26 08:51:39;;;;;;;3.63;1.30;;;26.50;99.90;;;;;;5085103;28;20214;-74
2022/08/26 08:54:06;;;;;;;3.65;1.60;;;26.50;99.90;;;;;;5087952;28;20182;-74
2022/08/26 08:57:03;;;;;;;2.00;1.17;;;26.50;99.90;;;;;;5124007;27;20183;-74
2022/08/26 08:59:57;;;;;;;2.67;1.08;;;26.60;99.90;;;;;;5075551;28;20222;-74
2022/08/26 09:02:55;;;;;;;5.35;1.90;;;27.00;99.90;;;;;;5079130;28;20278;-74
2022/08/26 09:05:30;;;;;;;1.52;1.00;;;27.20;99.90;;;;;;5077850;28;20198;-73
2022/08/26 09:08:05;;;;;;;2.95;1.17;;;27.40;99.90;;;;;;5083311;28;20236;-74
2022/08/26 09:10:46;;;;;;;2.13;1.30;;;27.60;99.90;;;;;;5083575;28;20210;-74
2022/08/26 09:13:18;;;;;;;2.35;1.15;;;27.60;99.90;;;;;;5080648;28;20186;-74
2022/08/26 09:15:57;;;;;;;3.80;1.20;;;27.80;99.90;;;;;;5105924;27;20594;-74
2022/08/26 09:18:41;;;;;;;2.38;1.23;;;27.90;99.90;;;;;;5056425;28;20182;-74
2022/08/26 09:21:13;;;;;;;2.17;1.00;;;28.10;99.90;;;;;;5095373;28;20273;-74
2022/08/26 09:23:42;;;;;;;5.25;1.30;;;28.40;99.90;;;;;;5099771;28;20230;-74
2022/08/26 09:26:37;;;;;;;3.00;1.30;;;28.40;99.90;;;;;;5087569;28;20213;-74
2022/08/26 09:29:19;;;;;;;2.80;1.50;;;28.60;99.90;;;;;;5084026;28;20190;-73
2022/08/26 09:31:46;;;;;;;2.85;1.23;;;28.80;99.90;;;;;;5077231;28;20186;-73
2022/08/26 09:34:25;;;;;;;4.63;1.42;;;28.90;99.90;;;;;;5106935;28;20932;-73
2022/08/26 09:36:59;;;;;;;2.72;1.13;;;28.90;99.90;;;;;;5090816;28;20239;-73
2022/08/26 09:39:38;;;;;;;1.95;1.10;;;28.60;99.90;;;;;;5087384;28;20950;-73
2022/08/26 09:42:24;;;;;;;1.73;1.10;;;28.30;99.90;;;;;;5114742;28;20216;-73
2022/08/26 09:45:07;;;;;;;2.22;1.20;;;28.00;99.90;;;;;;5063397;28;20935;-74
2022/08/26 09:47:54;;;;;;;3.75;1.35;;;27.80;99.90;;;;;;5067936;28;20197;-74
2022/08/26 09:50:35;;;;;;;2.33;1.15;;;27.70;99.90;;;;;;5060348;28;20262;-73
2022/08/26 09:53:24;;;;;;;2.17;1.20;;;27.50;99.90;;;;;;5084851;28;20197;-73
2022/08/26 09:56:24;;;;;;;5.22;1.38;;;27.50;99.90;;;;;;5088038;28;20173;-74
2022/08/26 09:58:53;;;;;;;3.00;1.30;;;27.50;99.90;;;;;;5085224;28;20190;-74
2022/08/26 10:01:36;;;;;;;2.13;1.27;;;27.50;99.90;;;;;;5104388;28;20192;-73
2022/08/26 10:04:24;;;;;;;2.22;1.17;;;27.40;99.90;;;;;;5084208;28;20647;-73
2022/08/26 10:07:08;;;;;;;1.75;1.17;;;27.40;99.90;;;;;;5082539;28;20256;-73
2022/08/26 10:09:43;;;;;;;5.13;1.40;;;27.30;99.90;;;;;;5061645;28;20210;-74
2022/08/26 10:12:20;;;;;;;2.15;1.33;;;27.20;99.90;;;;;;5099601;28;20644;-73
2022/08/26 10:15:00;;;;;;;6.28;1.40;;;27.20;99.90;;;;;;5087200;28;20284;-73
2022/08/26 10:18:11;;;;;;;3.45;1.40;;;27.30;99.90;;;;;;5109026;27;20194;-73
2022/08/26 10:20:53;;;;;;;1.83;1.30;;;27.30;99.90;;;;;;5085522;28;20209;-73
2022/08/26 10:23:27;;;;;;;5.50;1.40;;;27.40;99.90;;;;;;5081368;28;20220;-74
2022/08/26 10:26:10;;;;;;;2.90;1.40;;;27.40;99.90;;;;;;5091009;28;20186;-73
2022/08/26 10:29:06;;;;;;;2.97;1.25;;;27.30;99.90;;;;;;5069646;28;20182;-73
2022/08/26 10:31:39;;;;;;;3.97;1.33;;;27.20;99.90;;;;;;5082165;28;20198;-73
2022/08/26 10:34:07;;;;;;;2.92;1.45;;;27.20;99.90;;;;;;5094786;28;20182;-74
2022/08/26 10:36:50;;;;;;;4.03;1.30;;;27.20;99.90;;;;;;5088080;28;20182;-73
2022/08/26 10:39:33;;;;;;;2.40;1.10;;;27.30;99.90;;;;;;5071477;28;20339;-73
2022/08/26 10:42:08;;;;;;;2.65;1.23;;;27.20;99.90;;;;;;5109690;27;20317;-73
2022/08/26 10:44:40;;;;;;;5.35;1.30;;;27.10;99.90;;;;;;5077979;28;20193;-73
2022/08/26 10:47:29;;;;;;;2.55;1.20;;;27.10;99.90;;;;;;5081745;28;20187;-73
2022/08/26 10:49:57;;;;;;;3.00;1.10;;;27.10;99.90;;;;;;5078397;28;20242;-73
2022/08/26 10:52:39;;;;;;;2.67;1.40;;;27.00;99.90;;;;;;5119891;27;20736;-73
2022/08/26 10:55:21;;;;;;;3.15;1.20;;;27.10;99.90;;;;;;5091680;28;20194;-73
2022/08/26 10:57:58;;;;;;;2.90;1.15;;;27.20;99.90;;;;;;5084684;28;20198;-73
2022/08/26 11:04:23;;;;;;;2.75;1.40;;;27.30;99.90;;;;;;5114479;27;20196;-73
2022/08/26 11:07:29;;;;;;;3.60;1.35;;;27.20;99.90;;;;;;5084405;28;20190;-73
2022/08/26 11:09:59;;;;;;;4.60;1.20;;;27.20;99.90;;;;;;5081769;28;20211;-73
2022/08/26 11:12:37;;;;;;;3.75;1.52;;;27.30;99.90;;;;;;5088730;28;20236;-72
2022/08/26 11:15:10;;;;;;;3.65;1.60;;;27.20;99.90;;;;;;5092974;28;20651;-73
2022/08/26 11:17:45;;;;;;;2.13;1.30;;;27.20;99.90;;;;;;5093055;28;20269;-73
2022/08/26 11:20:46;;;;;;;4.60;1.38;;;27.20;99.90;;;;;;5083982;28;20193;-74
2022/08/26 11:23:12;;;;;;;2.85;1.30;;;27.40;99.90;;;;;;5082595;28;20186;-73
2022/08/26 11:26:00;;;;;;;3.00;1.40;;;27.30;99.90;;;;;;5106496;28;20221;-73
2022/08/26 11:28:46;;;;;;;5.00;1.58;;;27.40;99.90;;;;;;5084569;28;20226;-73
2022/08/26 11:31:39;;;;;;;4.65;1.60;;;27.50;99.90;;;;;;5104458;28;20202;-73
2022/08/26 11:34:11;;;;;;;2.90;1.30;;;27.60;99.90;;;;;;5113772;27;20194;-73
2022/08/26 11:36:44;;;;;;;3.97;1.60;;;27.60;99.90;;;;;;5079429;28;21188;-73
2022/08/26 11:39:47;;;;;;;2.00;1.20;;;27.70;99.90;;;;;;5097599;28;20186;-75
2022/08/26 11:42:31;;;;;;;2.03;1.25;;;27.70;99.90;;;;;;5082818;28;20192;-73
2022/08/26 11:45:00;;;;;;;5.03;1.23;;;27.60;99.90;;;;;;5080842;28;20228;-73
2022/08/26 11:47:30;;;;;;;4.40;1.38;;;27.50;99.90;;;;;;5123549;27;20213;-73
2022/08/26 11:50:08;;;;;;;2.85;1.42;;;27.40;99.90;;;;;;5082932;28;20240;-72
2022/08/26 11:52:35;;;;;;;3.05;1.65;;;27.70;99.90;;;;;;5079093;28;20559;-72
2022/08/26 11:55:13;;;;;;;5.18;1.42;;;27.70;99.90;;;;;;5076760;28;20187;-73
2022/08/26 11:57:56;;;;;;;8.85;1.60;;;27.90;99.90;;;;;;5063448;28;20746;-72
2022/08/26 12:00:46;;;;;;;8.02;1.80;;;27.90;99.90;;;;;;5078850;28;20187;-73
2022/08/26 12:03:23;;;;;;;3.15;1.50;;;28.20;99.90;;;;;;5077109;28;20873;-73
2022/08/26 12:05:52;;;;;;;3.80;1.50;;;28.50;99.90;;;;;;5087970;28;20182;-73
2022/08/26 12:08:26;;;;;;;9.43;1.40;;;28.60;99.90;;;;;;5097026;28;20537;-73
2022/08/26 12:11:12;;;;;;;4.78;1.40;;;28.60;99.90;;;;;;5097738;28;20229;-73
2022/08/26 12:13:41;;;;;;;4.05;1.58;;;28.70;99.90;;;;;;5095048;28;20720;-73
2022/08/26 12:16:07;;;;;;;2.72;1.40;;;28.60;99.90;;;;;;5072616;28;20685;-73
2022/08/26 12:18:38;;;;;;;2.70;1.65;;;28.20;99.90;;;;;;5070767;28;20195;-73
2022/08/26 12:21:23;;;;;;;2.80;1.73;;;28.10;99.90;;;;;;5071128;28;20190;-73
2022/08/26 12:23:58;;;;;;;5.22;1.85;;;27.90;99.90;;;;;;5071075;28;20225;-72
2022/08/26 12:26:34;;;;;;;4.30;2.10;;;27.90;99.90;;;;;;5090579;28;20201;-73
2022/08/26 12:29:26;;;;;;;5.38;2.08;;;28.20;99.90;;;;;;5089398;28;20265;-73
2022/08/26 12:32:13;;;;;;;5.82;1.80;;;28.00;99.90;;;;;;5104678;28;20204;-73
2022/08/26 12:34:47;;;;;;;3.22;1.60;;;27.90;99.90;;;;;;5096194;28;20587;-73
2022/08/26 12:37:19;;;;;;;5.47;1.98;;;27.80;99.90;;;;;;5105218;28;20206;-73
2022/08/26 12:39:51;;;;;;;5.45;2.10;;;27.70;99.90;;;;;;5084264;28;20194;-73
2022/08/26 12:42:45;;;;;;;4.65;2.30;;;27.60;99.90;;;;;;5090939;28;20186;-73
2022/08/26 12:45:12;;;;;;;5.85;1.98;;;27.60;99.90;;;;;;5102877;28;20205;-73
2022/08/26 12:47:44;;;;;;;5.57;2.00;;;27.50;99.90;;;;;;5075174;28;20269;-73
2022/08/26 12:50:38;;;;;;;6.60;2.13;;;27.40;99.90;;;;;;5075025;28;20233;-73
2022/08/26 12:53:21;;;;;;;3.95;1.88;;;27.40;99.90;;;;;;5107946;28;20174;-72
2022/08/26 12:56:26;;;;;;;5.43;2.00;;;27.60;99.90;;;;;;5092735;28;20242;-72
2022/08/26 12:59:21;;;;;;;8.43;2.50;;;27.70;99.90;;;;;;5066403;28;20225;-73
2022/08/26 13:01:48;;;;;;;3.92;1.88;;;28.00;99.90;;;;;;5090103;28;20185;-73
2022/08/26 13:04:37;;;;;;;3.78;2.15;;;28.20;99.90;;;;;;5105979;28;20243;-72
2022/08/26 13:07:23;;;;;;;4.95;2.15;;;28.20;99.90;;;;;;5085431;28;20909;-72
2022/08/26 13:09:56;;;;;;;3.03;1.90;;;28.20;99.90;;;;;;5067416;28;20214;-72
2022/08/26 13:12:32;;;;;;;4.07;2.15;;;28.10;99.90;;;;;;5071944;28;20189;-73
2022/08/26 13:15:04;;;;;;;4.00;2.13;;;28.20;99.90;;;;;;5086958;28;20236;-73
2022/08/26 13:17:33;;;;;;;4.32;2.03;;;28.30;99.90;;;;;;5088565;28;20681;-72
2022/08/26 13:20:00;;;;;;;3.42;2.08;;;28.40;99.90;;;;;;5071743;28;20186;-73
2022/08/26 13:22:26;;;;;;;6.93;2.15;;;28.40;99.90;;;;;;5071838;28;20235;-73
2022/08/26 13:24:56;;;;;;;6.68;2.47;;;28.30;99.90;;;;;;5087093;28;20201;-73
2022/08/26 13:27:25;;;;;;;5.85;2.10;;;28.20;99.90;;;;;;5102059;28;20188;-73